createdAt,value
2023-01-23T00:00:11.095Z,45.47
2023-01-23T00:01:11.098Z,50.86
2023-01-23T00:02:11.103Z,56.06
2023-01-23T00:03:11.039Z,47.30
2023-01-23T00:04:11.107Z,48.17
2023-01-23T00:05:11.035Z,43.79
2023-01-23T00:06:11.015Z,49.56
2023-01-23T00:07:11.037Z,46.68
2023-01-23T00:08:10.997Z,42.14
2023-01-23T00:09:11.061Z,44.61
2023-01-23T00:10:11.062Z,43.84
2023-01-23T00:11:11.015Z,41.59
2023-01-23T00:12:10.972Z,49.13
2023-01-23T00:13:11.017Z,46.98
2023-01-23T00:14:10.981Z,51.31
2023-01-23T00:15:10.977Z,52.11
2023-01-23T00:16:11.001Z,52.78
2023-01-23T00:17:10.915Z,47.34
2023-01-23T00:18:10.909Z,49.29
2023-01-23T00:19:10.938Z,42.22
2023-01-23T00:20:10.960Z,45.83
2023-01-23T00:21:10.912Z,48.13
2023-01-23T00:22:12.795Z,49.05
2023-01-23T00:23:10.888Z,48.66
2023-01-23T00:24:10.921Z,49.47
2023-01-23T00:25:10.880Z,44.98
2023-01-23T00:26:10.915Z,47.27
2023-01-23T00:27:11.856Z,63.32
2023-01-23T00:28:10.879Z,52.59
2023-01-23T00:29:10.869Z,43.25
2023-01-23T00:30:10.816Z,42.64
2023-01-23T00:31:10.919Z,47.34
2023-01-23T00:32:10.849Z,42.36
2023-01-23T00:33:10.803Z,44.02
2023-01-23T00:34:10.808Z,48.94
2023-01-23T00:35:10.813Z,60.64
2023-01-23T00:36:10.786Z,42.42
2023-01-23T00:37:10.765Z,43.44
2023-01-23T00:38:10.846Z,45.02
2023-01-23T00:39:10.759Z,43.72
2023-01-23T00:40:10.796Z,53.86
2023-01-23T00:41:10.778Z,45.00
2023-01-23T00:42:10.796Z,42.77
2023-01-23T00:43:10.757Z,47.23
2023-01-23T00:44:11.733Z,42.64
2023-01-23T00:45:10.737Z,43.65
2023-01-23T00:46:10.748Z,48.75
2023-01-23T00:47:10.694Z,48.91
2023-01-23T00:48:10.726Z,45.40
2023-01-23T00:49:10.691Z,58.59
2023-01-23T00:50:10.705Z,41.68
2023-01-23T00:51:10.673Z,41.82
2023-01-23T00:52:10.700Z,41.91
2023-01-23T00:53:10.687Z,42.63
2023-01-23T00:54:10.684Z,48.58
2023-01-23T00:55:10.745Z,45.93
2023-01-23T00:56:10.625Z,44.99
2023-01-23T00:57:10.609Z,41.91
2023-01-23T00:58:16.511Z,43.95
2023-01-23T00:59:11.666Z,42.60
2023-01-23T01:00:10.623Z,46.91
2023-01-23T01:01:10.566Z,48.76
2023-01-23T01:02:10.616Z,49.95
2023-01-23T01:03:10.662Z,50.06
2023-01-23T01:04:10.550Z,48.68
2023-01-23T01:05:10.570Z,40.93
2023-01-23T01:06:10.627Z,41.03
2023-01-23T01:07:10.545Z,44.44
2023-01-23T01:08:10.507Z,42.84
2023-01-23T01:09:10.550Z,46.44
2023-01-23T01:10:10.548Z,51.10
2023-01-23T01:11:10.637Z,46.47
2023-01-23T01:12:10.513Z,41.56
2023-01-23T01:13:10.509Z,47.20
2023-01-23T01:14:10.548Z,51.90
2023-01-23T01:15:10.559Z,48.68
2023-01-23T01:16:10.595Z,45.43
2023-01-23T01:17:10.549Z,48.21
2023-01-23T01:18:10.468Z,52.08
2023-01-23T01:19:10.461Z,47.40
2023-01-23T01:20:10.526Z,43.36
2023-01-23T01:21:10.600Z,47.88
2023-01-23T01:22:10.493Z,46.70
2023-01-23T01:23:10.480Z,50.24
2023-01-23T01:24:10.444Z,45.44
2023-01-23T01:25:10.455Z,48.84
2023-01-23T01:26:10.516Z,58.07
2023-01-23T01:27:10.527Z,43.71
2023-01-23T01:28:10.395Z,41.79
2023-01-23T01:29:10.541Z,55.79
2023-01-23T01:30:10.496Z,61.32
2023-01-23T01:31:10.596Z,47.66
2023-01-23T01:32:10.358Z,41.83
2023-01-23T01:33:10.383Z,47.00
2023-01-23T01:34:10.357Z,44.94
2023-01-23T01:35:10.425Z,42.53
2023-01-23T01:36:10.422Z,57.65
2023-01-23T01:37:10.342Z,59.10
2023-01-23T01:38:10.354Z,42.51
2023-01-23T01:39:10.545Z,42.02
2023-01-23T01:40:10.333Z,43.46
2023-01-23T01:41:10.300Z,47.21
2023-01-23T01:42:10.269Z,53.88
2023-01-23T01:43:10.428Z,61.71
2023-01-23T01:44:10.323Z,44.47
2023-01-23T01:45:10.280Z,53.31
2023-01-23T01:46:10.348Z,56.19
2023-01-23T01:47:10.388Z,47.93
2023-01-23T01:48:10.324Z,60.92
2023-01-23T01:49:10.274Z,48.79
2023-01-23T01:50:12.263Z,53.12
2023-01-23T01:51:11.249Z,61.57
2023-01-23T01:52:10.250Z,54.02
2023-01-23T01:53:10.252Z,50.80
2023-01-23T01:54:10.204Z,51.72
2023-01-23T01:55:10.193Z,55.84
2023-01-23T01:56:10.301Z,49.42
2023-01-23T01:57:10.183Z,49.78
2023-01-23T01:58:10.173Z,59.51
2023-01-23T01:59:10.321Z,53.57
2023-01-23T02:00:10.153Z,49.21
2023-01-23T02:01:10.267Z,60.05
2023-01-23T02:02:10.187Z,53.60
2023-01-23T02:03:10.224Z,49.84
2023-01-23T02:04:10.153Z,46.68
2023-01-23T02:05:10.186Z,55.69
2023-01-23T02:06:10.275Z,52.13
2023-01-23T02:07:10.144Z,57.28
2023-01-23T02:08:10.128Z,45.25
2023-01-23T02:09:10.185Z,49.06
2023-01-23T02:10:10.147Z,59.48
2023-01-23T02:11:10.075Z,55.52
2023-01-23T02:12:10.084Z,44.65
2023-01-23T02:13:10.046Z,48.97
2023-01-23T02:14:10.048Z,54.16
2023-01-23T02:15:10.037Z,52.05
2023-01-23T02:16:10.024Z,41.73
2023-01-23T02:17:10.043Z,45.30
2023-01-23T02:18:10.053Z,45.08
2023-01-23T02:19:10.098Z,48.06
2023-01-23T02:20:09.987Z,46.34
2023-01-23T02:21:10.071Z,40.74
2023-01-23T02:22:10.035Z,52.33
2023-01-23T02:23:10.011Z,46.59
2023-01-23T02:24:10.017Z,55.88
2023-01-23T02:25:09.928Z,47.75
2023-01-23T02:26:09.957Z,44.24
2023-01-23T02:27:09.938Z,44.59
2023-01-23T02:28:09.950Z,55.37
2023-01-23T02:29:10.068Z,49.79
2023-01-23T02:30:10.063Z,42.72
2023-01-23T02:31:09.927Z,47.06
2023-01-23T02:32:10.014Z,44.56
2023-01-23T02:33:09.881Z,55.21
2023-01-23T02:34:09.899Z,41.52
2023-01-23T02:35:09.929Z,51.38
2023-01-23T02:36:09.891Z,49.28
2023-01-23T02:37:09.964Z,42.22
2023-01-23T02:38:09.819Z,43.47
2023-01-23T02:39:09.847Z,48.32
2023-01-23T02:40:09.835Z,54.20
2023-01-23T02:41:09.818Z,53.91
2023-01-23T02:42:09.864Z,55.00
2023-01-23T02:43:09.824Z,53.68
2023-01-23T02:44:09.850Z,52.19
2023-01-23T02:45:09.770Z,55.53
2023-01-23T02:46:10.023Z,47.63
2023-01-23T02:47:09.938Z,42.58
2023-01-23T02:48:09.783Z,45.26
2023-01-23T02:49:09.744Z,57.20
2023-01-23T02:50:09.784Z,47.07
2023-01-23T02:51:09.901Z,48.28
2023-01-23T02:52:09.899Z,47.55
2023-01-23T02:53:09.750Z,52.87
2023-01-23T02:54:09.734Z,47.80
2023-01-23T02:55:09.705Z,46.79
2023-01-23T02:56:09.696Z,53.90
2023-01-23T02:57:09.769Z,52.45
2023-01-23T02:58:09.679Z,49.56
2023-01-23T02:59:09.720Z,57.71
2023-01-23T03:00:09.670Z,52.38
2023-01-23T03:01:09.797Z,54.36
2023-01-23T03:02:09.856Z,52.43
2023-01-23T03:03:09.722Z,53.72
2023-01-23T03:04:09.718Z,52.90
2023-01-23T03:05:09.733Z,53.77
2023-01-23T03:06:09.704Z,58.84
2023-01-23T03:07:09.691Z,52.78
2023-01-23T03:08:09.673Z,56.93
2023-01-23T03:09:09.627Z,48.78
2023-01-23T03:10:09.655Z,50.39
2023-01-23T03:11:09.607Z,52.90
2023-01-23T03:12:09.660Z,56.02
2023-01-23T03:13:09.715Z,48.38
2023-01-23T03:14:10.586Z,53.11
2023-01-23T03:15:09.570Z,43.35
2023-01-23T03:16:09.616Z,48.79
2023-01-23T03:17:09.599Z,54.03
2023-01-23T03:18:09.585Z,44.03
2023-01-23T03:19:09.570Z,48.71
2023-01-23T03:20:09.536Z,42.25
2023-01-23T03:21:09.529Z,50.59
2023-01-23T03:22:09.533Z,60.39
2023-01-23T03:23:09.631Z,44.44
2023-01-23T03:24:09.572Z,48.80
2023-01-23T03:25:09.575Z,50.61
2023-01-23T03:26:09.463Z,48.03
2023-01-23T03:27:09.472Z,52.22
2023-01-23T03:28:09.568Z,47.76
2023-01-23T03:29:09.486Z,52.26
2023-01-23T03:30:09.467Z,51.70
2023-01-23T03:31:09.502Z,51.78
2023-01-23T03:32:09.476Z,53.28
2023-01-23T03:33:09.519Z,52.24
2023-01-23T03:34:09.501Z,53.49
2023-01-23T03:35:09.544Z,47.57
2023-01-23T03:36:12.768Z,56.63
2023-01-23T03:37:09.423Z,56.89
2023-01-23T03:38:09.575Z,55.45
2023-01-23T03:39:09.474Z,62.93
2023-01-23T03:40:09.549Z,53.44
2023-01-23T03:41:09.459Z,51.35
2023-01-23T03:42:09.449Z,56.92
2023-01-23T03:43:09.346Z,51.40
2023-01-23T03:44:09.423Z,56.11
2023-01-23T03:45:09.344Z,54.18
2023-01-23T03:46:09.407Z,59.42
2023-01-23T03:47:09.324Z,50.02
2023-01-23T03:48:09.288Z,56.91
2023-01-23T03:49:09.421Z,59.91
2023-01-23T03:50:09.348Z,60.90
2023-01-23T03:51:09.312Z,54.30
2023-01-23T03:52:09.374Z,53.28
2023-01-23T03:53:09.403Z,51.67
2023-01-23T03:54:09.309Z,55.40
2023-01-23T03:55:09.391Z,56.61
2023-01-23T03:56:09.293Z,55.93
2023-01-23T03:57:09.292Z,53.89
2023-01-23T03:58:09.237Z,45.80
2023-01-23T03:59:09.298Z,54.93
2023-01-23T04:00:09.298Z,57.59
2023-01-23T04:01:09.321Z,56.03
2023-01-23T04:02:09.249Z,61.37
2023-01-23T04:03:09.279Z,56.44
2023-01-23T04:04:09.234Z,57.08
2023-01-23T04:05:09.235Z,53.26
2023-01-23T04:06:09.247Z,55.11
2023-01-23T04:07:09.225Z,49.92
2023-01-23T04:08:09.211Z,53.18
2023-01-23T04:09:09.178Z,56.60
2023-01-23T04:10:10.769Z,56.17
2023-01-23T04:11:09.236Z,55.39
2023-01-23T04:12:09.153Z,54.98
2023-01-23T04:13:09.145Z,56.88
2023-01-23T04:14:09.129Z,58.80
2023-01-23T04:15:09.144Z,59.55
2023-01-23T04:16:09.163Z,57.85
2023-01-23T04:17:09.075Z,57.89
2023-01-23T04:18:09.120Z,54.76
2023-01-23T04:19:09.149Z,58.84
2023-01-23T04:20:09.152Z,59.98
2023-01-23T04:21:09.078Z,57.94
2023-01-23T04:22:09.104Z,59.52
2023-01-23T04:23:09.071Z,57.45
2023-01-23T04:24:09.175Z,56.77
2023-01-23T04:25:09.083Z,56.17
2023-01-23T04:26:09.035Z,58.34
2023-01-23T04:27:09.148Z,56.96
2023-01-23T04:28:09.063Z,60.10
2023-01-23T04:29:09.133Z,59.18
2023-01-23T04:30:09.119Z,55.24
2023-01-23T04:31:09.061Z,51.82
2023-01-23T04:32:09.028Z,59.31
2023-01-23T04:33:09.041Z,58.08
2023-01-23T04:34:09.097Z,57.44
2023-01-23T04:35:09.058Z,55.52
2023-01-23T04:36:08.971Z,57.44
2023-01-23T04:37:09.487Z,57.11
2023-01-23T04:38:09.074Z,62.92
2023-01-23T04:39:09.033Z,58.53
2023-01-23T04:40:09.043Z,58.96
2023-01-23T04:41:08.988Z,55.47
2023-01-23T04:42:09.013Z,58.90
2023-01-23T04:43:08.976Z,56.49
2023-01-23T04:44:08.908Z,63.77
2023-01-23T04:45:08.912Z,54.05
2023-01-23T04:46:08.995Z,58.01
2023-01-23T04:47:41.618Z,58.17
2023-01-23T04:48:08.822Z,59.57
2023-01-23T04:49:08.817Z,59.16
2023-01-23T04:50:08.856Z,59.70
2023-01-23T04:51:08.863Z,59.52
2023-01-23T04:52:08.791Z,59.09
2023-01-23T04:53:08.793Z,57.42
2023-01-23T04:54:08.780Z,58.84
2023-01-23T04:55:08.793Z,57.58
2023-01-23T04:56:08.760Z,56.58
2023-01-23T04:57:08.757Z,59.69
2023-01-23T04:58:08.746Z,59.13
2023-01-23T04:59:08.808Z,56.34
2023-01-23T05:00:08.743Z,60.74
2023-01-23T05:01:08.809Z,60.21
2023-01-23T05:02:08.754Z,58.47
2023-01-23T05:03:08.705Z,60.50
2023-01-23T05:04:08.697Z,58.62
2023-01-23T05:05:08.689Z,61.96
2023-01-23T05:06:08.712Z,59.29
2023-01-23T05:07:08.678Z,58.48
2023-01-23T05:08:08.691Z,57.18
2023-01-23T05:09:08.686Z,55.23
2023-01-23T05:10:08.651Z,59.41
2023-01-23T05:11:08.677Z,59.25
2023-01-23T05:12:08.641Z,61.06
2023-01-23T05:13:08.632Z,60.62
2023-01-23T05:14:08.624Z,58.63
2023-01-23T05:15:08.689Z,55.27
2023-01-23T05:16:08.695Z,58.63
2023-01-23T05:17:08.602Z,61.47
2023-01-23T05:18:08.606Z,60.10
2023-01-23T05:19:08.616Z,58.64
2023-01-23T05:20:08.579Z,60.25
2023-01-23T05:21:08.599Z,59.47
2023-01-23T05:22:08.566Z,60.10
2023-01-23T05:23:08.552Z,60.82
2023-01-23T05:24:08.545Z,56.29
2023-01-23T05:25:08.543Z,63.67
2023-01-23T05:26:08.558Z,61.55
2023-01-23T05:27:08.527Z,59.78
2023-01-23T05:28:10.281Z,63.70
2023-01-23T05:29:08.506Z,63.40
2023-01-23T05:30:08.498Z,59.54
2023-01-23T05:31:08.684Z,60.27
2023-01-23T05:32:08.479Z,61.64
2023-01-23T05:33:08.470Z,61.21
2023-01-23T05:34:08.461Z,59.93
2023-01-23T05:35:08.456Z,59.47
2023-01-23T05:36:08.476Z,60.71
2023-01-23T05:37:08.481Z,60.33
2023-01-23T05:38:08.427Z,60.75
2023-01-23T05:39:08.431Z,64.27
2023-01-23T05:40:08.416Z,60.96
2023-01-23T05:41:08.446Z,58.79
2023-01-23T05:42:08.402Z,60.68
2023-01-23T05:43:08.397Z,62.31
2023-01-23T05:44:08.383Z,60.81
2023-01-23T05:45:08.379Z,61.15
2023-01-23T05:46:08.417Z,63.11
2023-01-23T05:47:08.472Z,61.19
2023-01-23T05:48:08.360Z,60.88
2023-01-23T05:49:08.351Z,62.45
2023-01-23T05:50:08.347Z,61.03
2023-01-23T05:51:08.399Z,61.39
2023-01-23T05:52:08.358Z,59.82
2023-01-23T05:53:08.325Z,60.28
2023-01-23T05:54:08.319Z,64.88
2023-01-23T05:55:08.311Z,60.75
2023-01-23T05:56:08.305Z,61.36
2023-01-23T05:57:08.318Z,61.65
2023-01-23T05:58:08.281Z,61.09
2023-01-23T05:59:08.277Z,60.26
2023-01-23T06:00:08.257Z,61.01
2023-01-23T06:01:09.261Z,64.14
2023-01-23T06:02:08.284Z,58.22
2023-01-23T06:03:08.312Z,59.39
2023-01-23T06:04:08.237Z,60.37
2023-01-23T06:05:08.231Z,60.56
2023-01-23T06:06:08.218Z,59.10
2023-01-23T06:07:08.240Z,59.19
2023-01-23T06:08:08.207Z,58.33
2023-01-23T06:09:08.192Z,61.04
2023-01-23T06:10:09.856Z,60.95
2023-01-23T06:11:09.176Z,60.60
2023-01-23T06:12:08.200Z,60.32
2023-01-23T06:13:08.160Z,61.84
2023-01-23T06:14:08.159Z,60.71
2023-01-23T06:15:08.141Z,59.94
2023-01-23T06:16:10.610Z,58.80
2023-01-23T06:17:09.155Z,58.18
2023-01-23T06:18:08.181Z,60.41
2023-01-23T06:19:08.186Z,59.59
2023-01-23T06:20:08.117Z,60.38
2023-01-23T06:21:08.126Z,59.93
2023-01-23T06:22:08.120Z,59.72
2023-01-23T06:23:08.083Z,59.87
2023-01-23T06:24:08.090Z,58.31
2023-01-23T06:25:08.068Z,55.76
2023-01-23T06:26:08.053Z,62.44
2023-01-23T06:27:08.050Z,55.84
2023-01-23T06:28:08.083Z,55.50
2023-01-23T06:29:08.036Z,55.15
2023-01-23T06:30:08.026Z,58.69
2023-01-23T06:31:08.085Z,55.75
2023-01-23T06:32:08.043Z,60.51
2023-01-23T06:33:08.005Z,58.13
2023-01-23T06:34:07.999Z,53.00
2023-01-23T06:35:07.996Z,57.69
2023-01-23T06:36:07.987Z,61.02
2023-01-23T06:37:07.973Z,59.62
2023-01-23T06:38:07.988Z,58.78
2023-01-23T06:39:07.960Z,59.62
2023-01-23T06:40:07.944Z,59.93
2023-01-23T06:41:07.945Z,60.17
2023-01-23T06:42:07.930Z,60.76
2023-01-23T06:43:07.957Z,60.62
2023-01-23T06:44:08.911Z,60.97
2023-01-23T06:45:07.916Z,59.62
2023-01-23T06:46:07.971Z,61.56
2023-01-23T06:47:07.887Z,59.54
2023-01-23T06:48:07.925Z,58.74
2023-01-23T06:49:07.874Z,60.84
2023-01-23T06:50:07.871Z,57.58
2023-01-23T06:51:07.979Z,60.02
2023-01-23T06:52:07.856Z,58.94
2023-01-23T06:53:07.887Z,60.43
2023-01-23T06:54:07.832Z,58.22
2023-01-23T06:55:07.828Z,63.24
2023-01-23T06:56:07.817Z,56.41
2023-01-23T06:57:07.814Z,60.08
2023-01-23T06:58:07.827Z,63.29
2023-01-23T06:59:07.793Z,58.69
2023-01-23T07:00:07.798Z,58.40
2023-01-23T07:01:07.780Z,60.09
2023-01-23T07:02:07.793Z,58.87
2023-01-23T07:03:07.834Z,58.77
2023-01-23T07:04:07.757Z,59.03
2023-01-23T07:05:07.750Z,60.17
2023-01-23T07:06:07.748Z,60.13
2023-01-23T07:07:07.820Z,61.07
2023-01-23T07:08:07.757Z,59.11
2023-01-23T07:09:07.722Z,59.18
2023-01-23T07:10:07.714Z,58.96
2023-01-23T07:11:07.711Z,59.71
2023-01-23T07:12:07.701Z,59.96
2023-01-23T07:13:07.730Z,60.43
2023-01-23T07:14:07.674Z,58.66
2023-01-23T07:15:07.722Z,57.97
2023-01-23T07:16:07.707Z,59.84
2023-01-23T07:17:07.639Z,58.75
2023-01-23T07:18:08.671Z,61.45
2023-01-23T07:19:07.639Z,58.96
2023-01-23T07:20:07.634Z,59.53
2023-01-23T07:21:07.628Z,60.40
2023-01-23T07:22:07.611Z,62.02
2023-01-23T07:23:07.712Z,60.39
2023-01-23T07:24:07.602Z,59.83
2023-01-23T07:25:07.607Z,61.53
2023-01-23T07:26:07.585Z,62.29
2023-01-23T07:27:07.578Z,58.43
2023-01-23T07:28:07.602Z,61.40
2023-01-23T07:29:07.564Z,59.81
2023-01-23T07:30:07.560Z,61.86
2023-01-23T07:31:07.732Z,58.95
2023-01-23T07:32:10.092Z,59.97
2023-01-23T07:33:07.549Z,59.66
2023-01-23T07:34:08.524Z,58.87
2023-01-23T07:35:07.512Z,55.64
2023-01-23T07:36:07.518Z,56.66
2023-01-23T07:37:07.502Z,57.93
2023-01-23T07:38:07.524Z,59.44
2023-01-23T07:39:07.566Z,61.58
2023-01-23T07:40:07.477Z,60.09
2023-01-23T07:41:07.464Z,60.33
2023-01-23T07:42:07.453Z,59.01
2023-01-23T07:43:07.487Z,61.37
2023-01-23T07:44:07.446Z,61.36
2023-01-23T07:45:07.434Z,60.06
2023-01-23T07:46:07.413Z,63.45
2023-01-23T07:47:08.419Z,60.42
2023-01-23T07:48:07.437Z,59.91
2023-01-23T07:49:07.398Z,64.52
2023-01-23T07:50:07.397Z,59.10
2023-01-23T07:51:07.502Z,60.55
2023-01-23T07:52:07.377Z,58.82
2023-01-23T07:53:07.396Z,58.83
2023-01-23T07:54:07.361Z,59.17
2023-01-23T07:55:07.422Z,61.38
2023-01-23T07:56:07.352Z,59.20
2023-01-23T07:57:07.339Z,57.69
2023-01-23T07:58:07.361Z,58.90
2023-01-23T07:59:07.321Z,59.03
2023-01-23T08:00:07.312Z,59.11
2023-01-23T08:01:07.353Z,59.79
2023-01-23T08:02:07.289Z,59.96
2023-01-23T08:03:07.316Z,60.44
2023-01-23T08:04:07.373Z,57.43
2023-01-23T08:05:07.274Z,60.49
2023-01-23T08:06:07.279Z,60.11
2023-01-23T08:07:07.255Z,60.22
2023-01-23T08:08:13.536Z,59.58
2023-01-23T08:09:09.255Z,59.45
2023-01-23T08:10:07.242Z,59.74
2023-01-23T08:11:07.311Z,59.07
2023-01-23T08:12:07.240Z,58.62
2023-01-23T08:13:07.256Z,58.03
2023-01-23T08:14:07.216Z,59.00
2023-01-23T08:15:07.199Z,61.78
2023-01-23T08:16:07.275Z,63.77
2023-01-23T08:17:07.199Z,61.55
2023-01-23T08:18:07.221Z,60.79
2023-01-23T08:19:07.184Z,60.07
2023-01-23T08:20:07.157Z,58.72
2023-01-23T08:21:07.157Z,58.30
2023-01-23T08:22:07.147Z,60.86
2023-01-23T08:23:07.167Z,58.81
2023-01-23T08:24:07.331Z,61.31
2023-01-23T08:25:07.124Z,59.91
2023-01-23T08:26:07.122Z,59.66
2023-01-23T08:27:07.188Z,56.30
2023-01-23T08:28:07.133Z,59.24
2023-01-23T08:29:07.104Z,59.00
2023-01-23T08:30:07.091Z,60.40
2023-01-23T08:31:07.140Z,58.60
2023-01-23T08:32:07.130Z,58.37
2023-01-23T08:33:07.107Z,58.28
2023-01-23T08:34:07.111Z,61.62
2023-01-23T08:35:07.060Z,58.36
2023-01-23T08:36:07.901Z,61.26
2023-01-23T08:37:07.035Z,63.00
2023-01-23T08:38:07.080Z,60.84
2023-01-23T08:39:07.028Z,62.01
2023-01-23T08:40:07.013Z,61.64
2023-01-23T08:41:07.011Z,62.09
2023-01-23T08:42:06.994Z,58.24
2023-01-23T08:43:07.026Z,59.58
2023-01-23T08:44:07.006Z,60.21
2023-01-23T08:45:06.977Z,58.73
2023-01-23T08:46:07.069Z,58.87
2023-01-23T08:47:06.964Z,59.74
2023-01-23T08:48:06.983Z,59.49
2023-01-23T08:49:06.955Z,60.41
2023-01-23T08:50:06.941Z,61.02
2023-01-23T08:51:06.981Z,59.28
2023-01-23T08:52:06.930Z,60.52
2023-01-23T08:53:06.945Z,59.51
2023-01-23T08:54:06.904Z,59.85
2023-01-23T08:55:06.905Z,58.29
2023-01-23T08:56:06.889Z,58.90
2023-01-23T08:57:06.885Z,60.24
2023-01-23T08:58:06.907Z,59.67
2023-01-23T08:59:06.991Z,57.77
2023-01-23T09:00:06.867Z,56.28
2023-01-23T09:01:06.908Z,58.81
2023-01-23T09:02:06.893Z,59.55
2023-01-23T09:03:06.868Z,57.69
2023-01-23T09:04:06.829Z,59.91
2023-01-23T09:05:06.826Z,60.37
2023-01-23T09:06:06.827Z,59.69
2023-01-23T09:07:06.814Z,57.20
2023-01-23T09:08:06.820Z,58.50
2023-01-23T09:09:07.797Z,59.43
2023-01-23T09:10:06.793Z,59.12
2023-01-23T09:11:06.784Z,59.81
2023-01-23T09:12:06.773Z,62.47
2023-01-23T09:13:06.791Z,60.49
2023-01-23T09:14:06.802Z,58.41
2023-01-23T09:15:06.832Z,58.51
2023-01-23T09:16:06.750Z,59.38
2023-01-23T09:17:06.731Z,56.96
2023-01-23T09:18:06.765Z,56.72
2023-01-23T09:19:06.725Z,58.27
2023-01-23T09:20:06.708Z,58.73
2023-01-23T09:21:08.677Z,61.67
2023-01-23T09:22:07.696Z,60.35
2023-01-23T09:23:06.715Z,60.40
2023-01-23T09:24:06.678Z,58.38
2023-01-23T09:25:06.678Z,59.65
2023-01-23T09:26:06.667Z,58.47
2023-01-23T09:27:06.650Z,60.45
2023-01-23T09:28:06.646Z,59.54
2023-01-23T09:29:06.653Z,58.67
2023-01-23T09:30:07.638Z,59.35
2023-01-23T09:31:06.777Z,57.27
2023-01-23T09:32:06.622Z,58.97
2023-01-23T09:33:06.605Z,59.05
2023-01-23T09:34:06.636Z,61.11
2023-01-23T09:35:06.643Z,58.89
2023-01-23T09:36:06.593Z,60.11
2023-01-23T09:37:06.567Z,59.56
2023-01-23T09:38:06.569Z,58.81
2023-01-23T09:39:06.589Z,61.64
2023-01-23T09:40:06.548Z,62.59
2023-01-23T09:41:06.544Z,59.35
2023-01-23T09:42:08.330Z,59.24
2023-01-23T09:43:07.534Z,60.45
2023-01-23T09:44:06.556Z,57.98
2023-01-23T09:45:06.523Z,58.30
2023-01-23T09:46:06.552Z,59.64
2023-01-23T09:47:06.575Z,57.55
2023-01-23T09:48:06.494Z,57.07
2023-01-23T09:49:06.516Z,59.70
2023-01-23T09:50:06.475Z,58.50
2023-01-23T09:51:06.503Z,60.22
2023-01-23T09:52:06.464Z,58.36
2023-01-23T09:53:06.455Z,59.91
2023-01-23T09:54:06.471Z,60.28
2023-01-23T09:55:06.438Z,57.44
2023-01-23T09:56:06.426Z,60.51
2023-01-23T09:57:06.427Z,59.79
2023-01-23T09:58:06.416Z,61.74
2023-01-23T09:59:06.441Z,59.82
2023-01-23T10:00:06.398Z,60.16
2023-01-23T10:01:06.421Z,59.85
2023-01-23T10:02:06.419Z,61.08
2023-01-23T10:03:06.389Z,61.13
2023-01-23T10:04:06.478Z,61.91
2023-01-23T10:05:06.367Z,58.16
2023-01-23T10:06:06.369Z,59.30
2023-01-23T10:07:06.344Z,59.74
2023-01-23T10:08:06.358Z,62.15
2023-01-23T10:09:06.361Z,64.82
2023-01-23T10:10:07.138Z,59.68
2023-01-23T10:11:07.319Z,60.74
2023-01-23T10:12:06.309Z,60.34
2023-01-23T10:13:06.300Z,61.73
2023-01-23T10:14:06.320Z,58.75
2023-01-23T10:15:06.351Z,60.23
2023-01-23T10:16:06.278Z,61.07
2023-01-23T10:17:06.311Z,60.94
2023-01-23T10:18:06.278Z,60.92
2023-01-23T10:19:06.362Z,59.64
2023-01-23T10:20:06.249Z,61.64
2023-01-23T10:21:06.238Z,58.11
2023-01-23T10:22:06.244Z,59.45
2023-01-23T10:23:06.240Z,58.23
2023-01-23T10:24:06.272Z,60.83
2023-01-23T10:25:06.217Z,59.70
2023-01-23T10:26:06.196Z,59.74
2023-01-23T10:27:06.191Z,61.58
2023-01-23T10:28:06.183Z,61.21
2023-01-23T10:29:06.199Z,56.27
2023-01-23T10:30:06.180Z,58.20
2023-01-23T10:31:06.249Z,63.07
2023-01-23T10:32:06.156Z,58.45
2023-01-23T10:33:06.143Z,59.42
2023-01-23T10:34:06.183Z,60.58
2023-01-23T10:35:06.207Z,60.96
2023-01-23T10:36:06.127Z,59.58
2023-01-23T10:37:06.115Z,61.61
2023-01-23T10:38:06.105Z,60.25
2023-01-23T10:39:06.123Z,58.57
2023-01-23T10:40:06.086Z,60.71
2023-01-23T10:41:06.083Z,60.09
2023-01-23T10:42:06.084Z,60.99
2023-01-23T10:43:06.079Z,59.60
2023-01-23T10:44:06.065Z,62.87
2023-01-23T10:45:06.081Z,58.48
2023-01-23T10:46:06.064Z,58.33
2023-01-23T10:47:42.761Z,59.80
2023-01-23T10:48:06.416Z,54.23
2023-01-23T10:49:07.031Z,59.12
2023-01-23T10:50:06.044Z,59.28
2023-01-23T10:51:06.159Z,60.08
2023-01-23T10:52:06.021Z,60.05
2023-01-23T10:53:06.026Z,59.65
2023-01-23T10:54:06.575Z,60.85
2023-01-23T10:55:07.007Z,55.39
2023-01-23T10:56:05.983Z,63.13
2023-01-23T10:57:05.962Z,59.66
2023-01-23T10:58:05.969Z,57.38
2023-01-23T10:59:05.947Z,63.86
2023-01-23T11:00:05.980Z,58.74
2023-01-23T11:01:05.979Z,57.13
2023-01-23T11:02:06.904Z,58.81
2023-01-23T11:03:07.023Z,62.39
2023-01-23T11:04:05.925Z,58.41
2023-01-23T11:05:05.956Z,56.97
2023-01-23T11:06:05.906Z,57.87
2023-01-23T11:07:06.022Z,57.16
2023-01-23T11:08:05.888Z,59.06
2023-01-23T11:09:05.866Z,57.89
2023-01-23T11:10:06.906Z,57.78
2023-01-23T11:11:05.875Z,58.17
2023-01-23T11:12:05.864Z,61.97
2023-01-23T11:13:05.866Z,59.59
2023-01-23T11:14:05.837Z,59.70
2023-01-23T11:15:05.869Z,59.08
2023-01-23T11:16:05.906Z,58.07
2023-01-23T11:17:05.830Z,59.36
2023-01-23T11:18:05.809Z,56.93
2023-01-23T11:19:05.813Z,59.60
2023-01-23T11:20:05.832Z,59.12
2023-01-23T11:21:05.814Z,62.31
2023-01-23T11:22:05.797Z,60.15
2023-01-23T11:23:05.862Z,61.95
2023-01-23T11:24:05.779Z,60.49
2023-01-23T11:25:05.817Z,57.68
2023-01-23T11:26:05.753Z,57.87
2023-01-23T11:27:05.752Z,57.88
2023-01-23T11:28:05.748Z,57.78
2023-01-23T11:29:05.750Z,59.91
2023-01-23T11:30:05.727Z,61.69
2023-01-23T11:31:14.033Z,59.85
2023-01-23T11:32:07.813Z,63.31
2023-01-23T11:33:05.709Z,61.41
2023-01-23T11:34:05.697Z,59.20
2023-01-23T11:35:07.333Z,58.80
2023-01-23T11:36:05.706Z,58.08
2023-01-23T11:37:05.669Z,60.33
2023-01-23T11:38:05.659Z,60.22
2023-01-23T11:39:06.732Z,59.87
2023-01-23T11:40:05.657Z,57.60
2023-01-23T11:41:05.675Z,58.87
2023-01-23T11:42:05.641Z,56.53
2023-01-23T11:43:05.636Z,61.12
2023-01-23T11:44:07.354Z,63.26
2023-01-23T11:45:05.614Z,59.86
2023-01-23T11:46:05.680Z,59.60
2023-01-23T11:47:05.593Z,59.28
2023-01-23T11:48:05.588Z,55.89
2023-01-23T11:49:05.579Z,60.84
2023-01-23T11:50:05.582Z,58.68
2023-01-23T11:51:05.650Z,58.99
2023-01-23T11:52:05.552Z,58.70
2023-01-23T11:53:05.577Z,59.24
2023-01-23T11:54:05.572Z,58.88
2023-01-23T11:55:05.611Z,59.73
2023-01-23T11:56:05.535Z,57.72
2023-01-23T11:57:05.549Z,60.77
2023-01-23T11:58:05.510Z,58.64
2023-01-23T11:59:05.532Z,59.41
2023-01-23T12:00:05.509Z,59.11
2023-01-23T12:01:05.502Z,59.31
2023-01-23T12:02:05.504Z,59.62
2023-01-23T12:03:05.556Z,57.67
2023-01-23T12:04:05.577Z,59.88
2023-01-23T12:05:05.462Z,57.41
2023-01-23T12:07:07.515Z,55.89
2023-01-23T12:08:05.433Z,62.28
2023-01-23T12:09:05.433Z,57.17
2023-01-23T12:10:05.417Z,59.45
2023-01-23T12:11:05.508Z,59.95
2023-01-23T12:12:05.421Z,61.67
2023-01-23T12:13:05.384Z,60.07
2023-01-23T12:14:05.385Z,59.02
2023-01-23T12:15:05.530Z,54.97
2023-01-23T12:16:11.261Z,58.07
2023-01-23T12:17:07.334Z,59.58
2023-01-23T12:18:06.903Z,64.18
2023-01-23T12:19:07.122Z,58.96
2023-01-23T12:20:06.193Z,60.05
2023-01-23T12:21:07.314Z,56.61
2023-01-23T12:22:08.125Z,57.72
2023-01-23T12:23:08.683Z,59.23
2023-01-23T12:24:08.689Z,59.38
2023-01-23T12:25:07.690Z,58.54
2023-01-23T12:26:06.692Z,59.58
2023-01-23T12:27:07.166Z,58.20
2023-01-23T12:28:06.958Z,55.94
2023-01-23T12:29:07.173Z,56.67
2023-01-23T12:30:06.120Z,60.79
2023-01-23T12:31:08.700Z,60.81
2023-01-23T12:32:07.289Z,60.58
2023-01-23T12:33:08.123Z,61.04
2023-01-23T12:34:07.123Z,57.90
2023-01-23T12:35:08.195Z,61.08
2023-01-23T12:36:06.823Z,62.11
2023-01-23T12:37:14.233Z,59.04
2023-01-23T12:38:09.631Z,57.72
2023-01-23T12:39:08.182Z,59.45
2023-01-23T12:40:08.455Z,60.71
2023-01-23T12:41:08.648Z,60.47
2023-01-23T12:42:07.687Z,59.07
2023-01-23T12:43:09.174Z,65.54
2023-01-23T12:44:08.213Z,61.00
2023-01-23T12:45:08.632Z,61.08
2023-01-23T12:46:07.704Z,63.56
2023-01-23T12:47:05.837Z,61.17
2023-01-23T12:48:07.630Z,59.27
2023-01-23T12:49:09.683Z,58.26
2023-01-23T12:50:10.196Z,60.42
2023-01-23T12:51:07.163Z,59.56
2023-01-23T12:52:07.831Z,59.67
2023-01-23T12:53:08.128Z,56.53